This is the latest recevied weather packets stored in our database for station/object 9A3SWO. If no packets are shown the sender has not sent any weather packets the latest 10 day(s).
| Time | Temp. | Humidity | Pressure | Rain* | Wind** | Luminosity | Snow |
|---|---|---|---|---|---|---|---|
| 1787481481 | 24.44° C | 49% | 1022.7 hPa | - | - | - | - |
| 1787480880 | 24.44° C | 49% | 1022.6 hPa | - | - | - | - |
| 1787480281 | 25° C | 49% | 1022.7 hPa | - | - | - | - |
| 1787479681 | 24.44° C | 48% | 1022.8 hPa | - | - | - | - |
| 1787479080 | 23.33° C | 50% | 1023.1 hPa | - | - | - | - |
| 1787478481 | 24.44° C | 48% | 1023 hPa | - | - | - | - |
| 1787477881 | 23.89° C | 49% | 1023.2 hPa | - | - | - | - |
| 1787477282 | 23.33° C | 51% | 1023.3 hPa | - | - | - | - |
| 1787476681 | 22.78° C | 52% | 1023.4 hPa | - | - | - | - |
| 1787476080 | 22.78° C | 52% | 1023.4 hPa | - | - | - | - |
| 1787475481 | 22.78° C | 52% | 1023.4 hPa | - | - | - | - |
| 1787474881 | 22.22° C | 54% | 1023.4 hPa | - | - | - | - |
| 1787474280 | 22.78° C | 52% | 1023.4 hPa | - | - | - | - |
| 1787473681 | 22.78° C | 51% | 1023.5 hPa | - | - | - | - |
| 1787473081 | 23.89° C | 48% | 1023.4 hPa | - | - | - | - |
| 1787472480 | 23.33° C | 50% | 1023.5 hPa | - | - | - | - |
| 1787471880 | 23.33° C | 52% | 1023.5 hPa | - | - | - | - |
| 1787471280 | 24.44° C | 51% | 1023.2 hPa | - | - | - | - |
| 1787470680 | 23.33° C | 53% | 1023.2 hPa | - | - | - | - |
| 1787470081 | 22.22° C | 55% | 1023.3 hPa | - | - | - | - |
| 1787469480 | 23.33° C | 56% | 1023.2 hPa | - | - | - | - |
| 1787468881 | 23.33° C | 59% | 1023.3 hPa | - | - | - | - |
| 1787468280 | 22.78° C | 58% | 1023.3 hPa | - | - | - | - |
| 1787467680 | 22.22° C | 61% | 1023.3 hPa | - | - | - | - |
| 1787467080 | 22.78° C | 63% | 1023.2 hPa | - | - | - | - |
* Rain since midnight (hover to see other rain measurements)
** Current wind speed in m/s (hover to see current wind gust speed)